Fairmont, West Virginia
Current Conditions -  °F | °C
As of 12:53 AM on Wednesday 26 Nov 2014 (Local Time) from KCKB Reporting Station
Clear Clear  
Wind Chill: 30°   Ceiling: Unl
Heat Index: 35°   Visibility: 10mi
Dew Point: 28°   Wind: 6mph
Humidity: 76%   Direction: 350°N
Pressure: 30.14"   Gusts: NA
Location:  39.48°N, 80.15°W
Report Text: KCKB 260553Z AUTO 35005KT 10SM CLR 02/M02 A3014 RMK AO2 SLP208 T00171022 10067 20017 58004 TSNO
Loading
Personal Weather Stations






























Interactive Weather Map New forecast layout! Learn more

10-Day Weather Forecast

Advertisements
Track Severe Weather on mobile